sensor_id;sensor_type;location;lat;lon;timestamp;temperature;humidity
76996;DHT22;65929;49.062;10.338;2023-05-10T00:00:51;12.50;95.30
76996;DHT22;65929;49.062;10.338;2023-05-10T00:01:52;12.50;95.30
76996;DHT22;65929;49.062;10.338;2023-05-10T00:02:53;12.50;95.20
76996;DHT22;65929;49.062;10.338;2023-05-10T00:03:54;12.50;95.20
76996;DHT22;65929;49.062;10.338;2023-05-10T00:04:55;12.50;95.20
76996;DHT22;65929;49.062;10.338;2023-05-10T00:05:56;12.50;95.30
76996;DHT22;65929;49.062;10.338;2023-05-10T00:06:57;12.50;95.30
76996;DHT22;65929;49.062;10.338;2023-05-10T00:07:58;12.50;95.30
76996;DHT22;65929;49.062;10.338;2023-05-10T00:08:59;12.50;95.20
76996;DHT22;65929;49.062;10.338;2023-05-10T00:10:02;12.50;95.20
76996;DHT22;65929;49.062;10.338;2023-05-10T00:11:05;12.50;95.20
76996;DHT22;65929;49.062;10.338;2023-05-10T00:12:06;12.50;95.10
76996;DHT22;65929;49.062;10.338;2023-05-10T00:13:07;12.50;95.10
76996;DHT22;65929;49.062;10.338;2023-05-10T00:14:08;12.50;95.00
76996;DHT22;65929;49.062;10.338;2023-05-10T00:15:09;12.50;94.90
76996;DHT22;65929;49.062;10.338;2023-05-10T00:16:10;12.50;94.90
76996;DHT22;65929;49.062;10.338;2023-05-10T00:17:14;12.50;94.80
76996;DHT22;65929;49.062;10.338;2023-05-10T00:18:15;12.50;94.70
76996;DHT22;65929;49.062;10.338;2023-05-10T00:19:16;12.50;94.70
76996;DHT22;65929;49.062;10.338;2023-05-10T00:20:17;12.50;94.60
76996;DHT22;65929;49.062;10.338;2023-05-10T00:22:20;12.50;94.30
76996;DHT22;65929;49.062;10.338;2023-05-10T00:23:21;12.50;94.40
76996;DHT22;65929;49.062;10.338;2023-05-10T00:24:22;12.50;94.40
76996;DHT22;65929;49.062;10.338;2023-05-10T00:25:24;12.50;94.00
76996;DHT22;65929;49.062;10.338;2023-05-10T00:26:25;12.50;93.80
76996;DHT22;65929;49.062;10.338;2023-05-10T00:27:26;12.50;93.70
76996;DHT22;65929;49.062;10.338;2023-05-10T00:28:27;12.40;93.60
76996;DHT22;65929;49.062;10.338;2023-05-10T00:29:29;12.40;93.40
76996;DHT22;65929;49.062;10.338;2023-05-10T00:30:30;12.40;93.40
76996;DHT22;65929;49.062;10.338;2023-05-10T00:31:31;12.40;93.20
76996;DHT22;65929;49.062;10.338;2023-05-10T00:32:32;12.30;93.20
76996;DHT22;65929;49.062;10.338;2023-05-10T00:33:33;12.30;93.30
76996;DHT22;65929;49.062;10.338;2023-05-10T00:34:34;12.30;92.80
76996;DHT22;65929;49.062;10.338;2023-05-10T00:35:35;12.30;92.60
76996;DHT22;65929;49.062;10.338;2023-05-10T00:36:36;12.20;92.60
76996;DHT22;65929;49.062;10.338;2023-05-10T00:37:37;12.20;92.50
76996;DHT22;65929;49.062;10.338;2023-05-10T00:38:38;12.20;92.60
76996;DHT22;65929;49.062;10.338;2023-05-10T00:39:39;12.20;92.70
76996;DHT22;65929;49.062;10.338;2023-05-10T00:40:41;12.20;92.70
76996;DHT22;65929;49.062;10.338;2023-05-10T00:41:42;12.20;92.80
76996;DHT22;65929;49.062;10.338;2023-05-10T00:42:43;12.20;93.10
76996;DHT22;65929;49.062;10.338;2023-05-10T00:43:44;12.20;93.20
76996;DHT22;65929;49.062;10.338;2023-05-10T00:44:45;12.20;93.00
76996;DHT22;65929;49.062;10.338;2023-05-10T00:45:47;12.20;92.80
76996;DHT22;65929;49.062;10.338;2023-05-10T00:46:48;12.20;92.90
76996;DHT22;65929;49.062;10.338;2023-05-10T00:47:50;12.20;92.90
76996;DHT22;65929;49.062;10.338;2023-05-10T00:48:52;12.10;93.00
76996;DHT22;65929;49.062;10.338;2023-05-10T00:49:53;12.10;93.20
76996;DHT22;65929;49.062;10.338;2023-05-10T00:50:56;12.10;92.80
76996;DHT22;65929;49.062;10.338;2023-05-10T00:51:57;12.10;92.80
76996;DHT22;65929;49.062;10.338;2023-05-10T00:52:59;12.10;92.70
76996;DHT22;65929;49.062;10.338;2023-05-10T00:54:00;12.10;92.80
76996;DHT22;65929;49.062;10.338;2023-05-10T00:55:01;12.10;93.10
76996;DHT22;65929;49.062;10.338;2023-05-10T00:56:05;12.10;93.20
76996;DHT22;65929;49.062;10.338;2023-05-10T00:57:07;12.10;93.20
76996;DHT22;65929;49.062;10.338;2023-05-10T00:58:08;12.10;93.30
76996;DHT22;65929;49.062;10.338;2023-05-10T00:59:09;12.00;93.10
76996;DHT22;65929;49.062;10.338;2023-05-10T01:00:12;12.10;93.00
76996;DHT22;65929;49.062;10.338;2023-05-10T01:01:19;12.10;92.80
76996;DHT22;65929;49.062;10.338;2023-05-10T01:02:20;12.10;93.00
76996;DHT22;65929;49.062;10.338;2023-05-10T01:03:21;12.10;93.20
76996;DHT22;65929;49.062;10.338;2023-05-10T01:04:22;12.00;93.50
76996;DHT22;65929;49.062;10.338;2023-05-10T01:05:26;12.00;93.60
76996;DHT22;65929;49.062;10.338;2023-05-10T01:06:28;12.00;93.70
76996;DHT22;65929;49.062;10.338;2023-05-10T01:07:29;12.00;93.60
76996;DHT22;65929;49.062;10.338;2023-05-10T01:08:30;12.00;93.70
76996;DHT22;65929;49.062;10.338;2023-05-10T01:09:31;12.00;93.70
76996;DHT22;65929;49.062;10.338;2023-05-10T01:10:35;12.00;93.60
76996;DHT22;65929;49.062;10.338;2023-05-10T01:11:38;12.00;93.70
76996;DHT22;65929;49.062;10.338;2023-05-10T01:12:41;12.00;94.00
76996;DHT22;65929;49.062;10.338;2023-05-10T01:13:46;12.00;94.00
76996;DHT22;65929;49.062;10.338;2023-05-10T01:14:50;12.00;94.10
76996;DHT22;65929;49.062;10.338;2023-05-10T01:15:51;12.00;94.20
76996;DHT22;65929;49.062;10.338;2023-05-10T01:16:53;12.00;94.10
76996;DHT22;65929;49.062;10.338;2023-05-10T01:17:54;12.00;94.10
76996;DHT22;65929;49.062;10.338;2023-05-10T01:18:56;12.00;93.90
76996;DHT22;65929;49.062;10.338;2023-05-10T01:19:57;12.00;93.90
76996;DHT22;65929;49.062;10.338;2023-05-10T01:21:06;12.00;94.00
76996;DHT22;65929;49.062;10.338;2023-05-10T01:22:28;12.00;94.00
76996;DHT22;65929;49.062;10.338;2023-05-10T01:23:53;12.00;94.00
76996;DHT22;65929;49.062;10.338;2023-05-10T01:25:15;12.00;93.90
76996;DHT22;65929;49.062;10.338;2023-05-10T01:26:41;12.00;94.00
76996;DHT22;65929;49.062;10.338;2023-05-10T01:28:19;12.00;94.00
76996;DHT22;65929;49.062;10.338;2023-05-10T01:31:22;11.90;94.00
76996;DHT22;65929;49.062;10.338;2023-05-10T01:32:36;11.90;94.20
76996;DHT22;65929;49.062;10.338;2023-05-10T01:33:45;11.90;94.30
76996;DHT22;65929;49.062;10.338;2023-05-10T01:34:54;11.90;94.40
76996;DHT22;65929;49.062;10.338;2023-05-10T01:36:11;11.90;94.40
76996;DHT22;65929;49.062;10.338;2023-05-10T01:37:16;11.90;94.60
76996;DHT22;65929;49.062;10.338;2023-05-10T01:38:26;11.90;94.60
76996;DHT22;65929;49.062;10.338;2023-05-10T01:39:36;11.90;94.60
76996;DHT22;65929;49.062;10.338;2023-05-10T01:40:46;11.90;94.50
76996;DHT22;65929;49.062;10.338;2023-05-10T01:41:52;11.90;94.40
76996;DHT22;65929;49.062;10.338;2023-05-10T01:43:01;11.90;94.40
76996;DHT22;65929;49.062;10.338;2023-05-10T01:44:12;11.90;94.50
76996;DHT22;65929;49.062;10.338;2023-05-10T01:45:22;11.90;94.50
76996;DHT22;65929;49.062;10.338;2023-05-10T01:46:31;12.00;94.50
76996;DHT22;65929;49.062;10.338;2023-05-10T01:47:38;12.00;94.50
76996;DHT22;65929;49.062;10.338;2023-05-10T01:48:46;11.90;94.50
76996;DHT22;65929;49.062;10.338;2023-05-10T01:49:50;12.00;94.60
76996;DHT22;65929;49.062;10.338;2023-05-10T01:50:52;11.90;94.70
76996;DHT22;65929;49.062;10.338;2023-05-10T01:52:00;11.90;94.80
76996;DHT22;65929;49.062;10.338;2023-05-10T01:53:02;11.90;94.70
76996;DHT22;65929;49.062;10.338;2023-05-10T01:54:05;12.00;94.60
76996;DHT22;65929;49.062;10.338;2023-05-10T01:55:09;12.00;94.60
76996;DHT22;65929;49.062;10.338;2023-05-10T01:56:12;12.00;94.60
76996;DHT22;65929;49.062;10.338;2023-05-10T01:57:16;12.00;94.70
76996;DHT22;65929;49.062;10.338;2023-05-10T01:58:23;11.90;94.50
76996;DHT22;65929;49.062;10.338;2023-05-10T01:59:26;11.90;94.40
76996;DHT22;65929;49.062;10.338;2023-05-10T02:00:29;11.90;94.40
76996;DHT22;65929;49.062;10.338;2023-05-10T02:01:32;11.90;94.40
76996;DHT22;65929;49.062;10.338;2023-05-10T02:02:37;11.90;94.30
76996;DHT22;65929;49.062;10.338;2023-05-10T02:03:43;11.90;94.30
76996;DHT22;65929;49.062;10.338;2023-05-10T02:04:45;11.90;94.40
76996;DHT22;65929;49.062;10.338;2023-05-10T02:05:48;11.90;94.50
76996;DHT22;65929;49.062;10.338;2023-05-10T02:06:51;11.90;94.60
76996;DHT22;65929;49.062;10.338;2023-05-10T02:07:54;11.90;94.50
76996;DHT22;65929;49.062;10.338;2023-05-10T02:08:56;11.90;94.50
76996;DHT22;65929;49.062;10.338;2023-05-10T02:09:58;11.90;94.60
76996;DHT22;65929;49.062;10.338;2023-05-10T02:11:00;11.90;94.70
76996;DHT22;65929;49.062;10.338;2023-05-10T02:12:03;11.90;94.80
76996;DHT22;65929;49.062;10.338;2023-05-10T02:13:05;11.90;94.70
76996;DHT22;65929;49.062;10.338;2023-05-10T02:14:09;11.90;94.80
76996;DHT22;65929;49.062;10.338;2023-05-10T02:15:15;11.90;94.80
76996;DHT22;65929;49.062;10.338;2023-05-10T02:16:18;11.90;94.90
76996;DHT22;65929;49.062;10.338;2023-05-10T02:17:23;11.90;94.90
76996;DHT22;65929;49.062;10.338;2023-05-10T02:18:27;11.90;94.90
76996;DHT22;65929;49.062;10.338;2023-05-10T02:19:29;11.90;94.80
76996;DHT22;65929;49.062;10.338;2023-05-10T02:20:31;11.90;94.80
76996;DHT22;65929;49.062;10.338;2023-05-10T02:21:34;11.90;94.90
76996;DHT22;65929;49.062;10.338;2023-05-10T02:22:36;11.90;94.90
76996;DHT22;65929;49.062;10.338;2023-05-10T02:23:38;11.90;95.00
76996;DHT22;65929;49.062;10.338;2023-05-10T02:24:40;11.90;95.10
76996;DHT22;65929;49.062;10.338;2023-05-10T02:25:43;11.90;95.20
76996;DHT22;65929;49.062;10.338;2023-05-10T02:26:44;11.90;95.10
76996;DHT22;65929;49.062;10.338;2023-05-10T02:27:47;11.80;95.20
76996;DHT22;65929;49.062;10.338;2023-05-10T02:28:49;11.80;95.20
76996;DHT22;65929;49.062;10.338;2023-05-10T02:29:51;11.80;95.20
76996;DHT22;65929;49.062;10.338;2023-05-10T02:30:53;11.80;95.20
76996;DHT22;65929;49.062;10.338;2023-05-10T02:31:56;11.80;95.30
76996;DHT22;65929;49.062;10.338;2023-05-10T02:32:57;11.80;95.30
76996;DHT22;65929;49.062;10.338;2023-05-10T02:34:01;11.80;95.40
76996;DHT22;65929;49.062;10.338;2023-05-10T02:35:04;11.80;95.40
76996;DHT22;65929;49.062;10.338;2023-05-10T02:36:07;11.80;95.50
76996;DHT22;65929;49.062;10.338;2023-05-10T02:37:10;11.80;95.40
76996;DHT22;65929;49.062;10.338;2023-05-10T02:38:11;11.80;95.50
76996;DHT22;65929;49.062;10.338;2023-05-10T02:39:14;11.80;95.50
76996;DHT22;65929;49.062;10.338;2023-05-10T02:40:16;11.70;95.50
76996;DHT22;65929;49.062;10.338;2023-05-10T02:41:20;11.70;95.60
76996;DHT22;65929;49.062;10.338;2023-05-10T02:42:25;11.70;95.60
76996;DHT22;65929;49.062;10.338;2023-05-10T02:43:26;11.70;95.60
76996;DHT22;65929;49.062;10.338;2023-05-10T02:44:29;11.70;95.60
76996;DHT22;65929;49.062;10.338;2023-05-10T02:45:32;11.70;95.30
76996;DHT22;65929;49.062;10.338;2023-05-10T02:46:35;11.70;94.90
76996;DHT22;65929;49.062;10.338;2023-05-10T02:47:37;11.70;94.50
76996;DHT22;65929;49.062;10.338;2023-05-10T02:48:38;11.70;94.10
76996;DHT22;65929;49.062;10.338;2023-05-10T02:49:41;11.70;93.80
76996;DHT22;65929;49.062;10.338;2023-05-10T02:50:44;11.60;93.80
76996;DHT22;65929;49.062;10.338;2023-05-10T02:51:50;11.50;93.90
76996;DHT22;65929;49.062;10.338;2023-05-10T02:52:55;11.50;93.90
76996;DHT22;65929;49.062;10.338;2023-05-10T02:54:02;11.50;93.60
76996;DHT22;65929;49.062;10.338;2023-05-10T02:55:09;11.50;93.60
76996;DHT22;65929;49.062;10.338;2023-05-10T02:56:13;11.50;93.60
76996;DHT22;65929;49.062;10.338;2023-05-10T02:57:16;11.50;93.70
76996;DHT22;65929;49.062;10.338;2023-05-10T02:58:20;11.50;93.80
76996;DHT22;65929;49.062;10.338;2023-05-10T02:59:21;11.40;94.00
76996;DHT22;65929;49.062;10.338;2023-05-10T03:00:22;11.40;94.10
76996;DHT22;65929;49.062;10.338;2023-05-10T03:01:24;11.40;93.90
76996;DHT22;65929;49.062;10.338;2023-05-10T03:02:26;11.40;93.90
76996;DHT22;65929;49.062;10.338;2023-05-10T03:03:27;11.40;94.00
76996;DHT22;65929;49.062;10.338;2023-05-10T03:04:28;11.30;93.90
76996;DHT22;65929;49.062;10.338;2023-05-10T03:05:30;11.30;93.80
76996;DHT22;65929;49.062;10.338;2023-05-10T03:06:31;11.30;93.90
76996;DHT22;65929;49.062;10.338;2023-05-10T03:07:33;11.30;93.80
76996;DHT22;65929;49.062;10.338;2023-05-10T03:08:34;11.30;93.70
76996;DHT22;65929;49.062;10.338;2023-05-10T03:09:38;11.30;93.90
76996;DHT22;65929;49.062;10.338;2023-05-10T03:10:44;11.30;94.00
76996;DHT22;65929;49.062;10.338;2023-05-10T03:11:55;11.30;93.90
76996;DHT22;65929;49.062;10.338;2023-05-10T03:13:07;11.30;93.90
76996;DHT22;65929;49.062;10.338;2023-05-10T03:14:21;11.20;93.90
76996;DHT22;65929;49.062;10.338;2023-05-10T03:15:32;11.20;94.00
76996;DHT22;65929;49.062;10.338;2023-05-10T03:16:41;11.20;94.00
76996;DHT22;65929;49.062;10.338;2023-05-10T03:17:48;11.20;93.70
76996;DHT22;65929;49.062;10.338;2023-05-10T03:18:55;11.20;93.70
76996;DHT22;65929;49.062;10.338;2023-05-10T03:19:58;11.20;93.70
76996;DHT22;65929;49.062;10.338;2023-05-10T03:21:07;11.20;93.80
76996;DHT22;65929;49.062;10.338;2023-05-10T03:22:13;11.10;93.90
76996;DHT22;65929;49.062;10.338;2023-05-10T03:23:22;11.20;93.90
76996;DHT22;65929;49.062;10.338;2023-05-10T03:24:27;11.20;93.90
76996;DHT22;65929;49.062;10.338;2023-05-10T03:25:29;11.20;94.00
76996;DHT22;65929;49.062;10.338;2023-05-10T03:26:32;11.20;94.00
76996;DHT22;65929;49.062;10.338;2023-05-10T03:27:34;11.10;94.00
76996;DHT22;65929;49.062;10.338;2023-05-10T03:28:36;11.10;94.10
76996;DHT22;65929;49.062;10.338;2023-05-10T03:29:38;11.10;94.10
76996;DHT22;65929;49.062;10.338;2023-05-10T03:30:40;11.10;94.00
76996;DHT22;65929;49.062;10.338;2023-05-10T03:31:42;11.10;94.10
76996;DHT22;65929;49.062;10.338;2023-05-10T03:32:43;11.10;94.10
76996;DHT22;65929;49.062;10.338;2023-05-10T03:33:47;11.10;93.70
76996;DHT22;65929;49.062;10.338;2023-05-10T03:34:48;11.10;93.50
76996;DHT22;65929;49.062;10.338;2023-05-10T03:35:50;11.10;93.20
76996;DHT22;65929;49.062;10.338;2023-05-10T03:36:52;11.10;93.40
76996;DHT22;65929;49.062;10.338;2023-05-10T03:37:53;11.10;93.20
76996;DHT22;65929;49.062;10.338;2023-05-10T03:38:54;11.10;93.30
76996;DHT22;65929;49.062;10.338;2023-05-10T03:39:55;11.10;93.40
76996;DHT22;65929;49.062;10.338;2023-05-10T03:40:56;11.10;93.50
76996;DHT22;65929;49.062;10.338;2023-05-10T03:41:57;11.10;93.60
76996;DHT22;65929;49.062;10.338;2023-05-10T03:42:58;11.10;93.80
76996;DHT22;65929;49.062;10.338;2023-05-10T03:43:59;11.10;93.90
76996;DHT22;65929;49.062;10.338;2023-05-10T03:45:00;11.00;94.10
76996;DHT22;65929;49.062;10.338;2023-05-10T03:46:02;11.00;94.10
76996;DHT22;65929;49.062;10.338;2023-05-10T03:47:03;11.00;93.90
76996;DHT22;65929;49.062;10.338;2023-05-10T03:48:04;11.00;93.70
76996;DHT22;65929;49.062;10.338;2023-05-10T03:49:05;11.00;93.50
76996;DHT22;65929;49.062;10.338;2023-05-10T03:50:07;11.00;93.20
76996;DHT22;65929;49.062;10.338;2023-05-10T03:51:08;11.00;92.80
76996;DHT22;65929;49.062;10.338;2023-05-10T03:52:10;11.00;92.90
76996;DHT22;65929;49.062;10.338;2023-05-10T03:53:11;11.00;93.00
76996;DHT22;65929;49.062;10.338;2023-05-10T03:54:13;11.00;92.70
76996;DHT22;65929;49.062;10.338;2023-05-10T03:55:13;11.00;92.60
76996;DHT22;65929;49.062;10.338;2023-05-10T03:56:14;11.00;92.60
76996;DHT22;65929;49.062;10.338;2023-05-10T03:57:16;11.00;92.30
76996;DHT22;65929;49.062;10.338;2023-05-10T03:58:16;11.00;92.50
76996;DHT22;65929;49.062;10.338;2023-05-10T03:59:18;11.00;92.60
76996;DHT22;65929;49.062;10.338;2023-05-10T04:00:20;11.00;92.50
76996;DHT22;65929;49.062;10.338;2023-05-10T04:01:21;11.00;92.50
76996;DHT22;65929;49.062;10.338;2023-05-10T04:02:22;10.90;92.40
76996;DHT22;65929;49.062;10.338;2023-05-10T04:03:23;10.90;92.20
76996;DHT22;65929;49.062;10.338;2023-05-10T04:04:24;10.90;92.30
76996;DHT22;65929;49.062;10.338;2023-05-10T04:05:25;10.90;92.40
76996;DHT22;65929;49.062;10.338;2023-05-10T04:06:26;10.90;92.60
76996;DHT22;65929;49.062;10.338;2023-05-10T04:07:28;10.90;92.40
76996;DHT22;65929;49.062;10.338;2023-05-10T04:08:29;10.90;92.60
76996;DHT22;65929;49.062;10.338;2023-05-10T04:09:31;10.90;92.80
76996;DHT22;65929;49.062;10.338;2023-05-10T04:10:32;10.90;92.30
76996;DHT22;65929;49.062;10.338;2023-05-10T04:11:33;10.90;92.30
76996;DHT22;65929;49.062;10.338;2023-05-10T04:12:34;10.90;92.60
76996;DHT22;65929;49.062;10.338;2023-05-10T04:13:35;10.90;92.60
76996;DHT22;65929;49.062;10.338;2023-05-10T04:14:36;10.80;92.60
76996;DHT22;65929;49.062;10.338;2023-05-10T04:15:37;10.90;92.30
76996;DHT22;65929;49.062;10.338;2023-05-10T04:16:38;10.90;92.10
76996;DHT22;65929;49.062;10.338;2023-05-10T04:17:39;10.80;92.20
76996;DHT22;65929;49.062;10.338;2023-05-10T04:18:41;10.90;92.40
76996;DHT22;65929;49.062;10.338;2023-05-10T04:19:42;10.90;92.60
76996;DHT22;65929;49.062;10.338;2023-05-10T04:20:44;10.80;92.70
76996;DHT22;65929;49.062;10.338;2023-05-10T04:21:44;10.80;92.50
76996;DHT22;65929;49.062;10.338;2023-05-10T04:22:47;10.80;92.40
76996;DHT22;65929;49.062;10.338;2023-05-10T04:23:48;10.80;92.30
76996;DHT22;65929;49.062;10.338;2023-05-10T04:24:48;10.80;92.10
76996;DHT22;65929;49.062;10.338;2023-05-10T04:25:49;10.80;92.00
76996;DHT22;65929;49.062;10.338;2023-05-10T04:26:51;10.80;91.90
76996;DHT22;65929;49.062;10.338;2023-05-10T04:27:52;10.80;91.50
76996;DHT22;65929;49.062;10.338;2023-05-10T04:28:53;10.80;91.70
76996;DHT22;65929;49.062;10.338;2023-05-10T04:29:54;10.80;91.80
76996;DHT22;65929;49.062;10.338;2023-05-10T04:31:01;10.80;91.80
76996;DHT22;65929;49.062;10.338;2023-05-10T04:32:02;10.80;91.70
76996;DHT22;65929;49.062;10.338;2023-05-10T04:33:04;10.90;91.50
76996;DHT22;65929;49.062;10.338;2023-05-10T04:34:05;10.90;91.60
76996;DHT22;65929;49.062;10.338;2023-05-10T04:35:06;10.90;91.80
76996;DHT22;65929;49.062;10.338;2023-05-10T04:36:08;10.90;91.90
76996;DHT22;65929;49.062;10.338;2023-05-10T04:37:09;10.80;91.80
76996;DHT22;65929;49.062;10.338;2023-05-10T04:38:11;10.80;91.80
76996;DHT22;65929;49.062;10.338;2023-05-10T04:39:12;10.80;92.00
76996;DHT22;65929;49.062;10.338;2023-05-10T04:40:14;10.80;92.20
76996;DHT22;65929;49.062;10.338;2023-05-10T04:41:15;10.80;92.50
76996;DHT22;65929;49.062;10.338;2023-05-10T04:42:16;10.80;92.60
76996;DHT22;65929;49.062;10.338;2023-05-10T04:43:17;10.80;92.70
76996;DHT22;65929;49.062;10.338;2023-05-10T04:44:18;10.80;92.40
76996;DHT22;65929;49.062;10.338;2023-05-10T04:45:22;10.80;92.20
76996;DHT22;65929;49.062;10.338;2023-05-10T04:46:23;10.80;92.50
76996;DHT22;65929;49.062;10.338;2023-05-10T04:47:24;10.80;92.60
76996;DHT22;65929;49.062;10.338;2023-05-10T04:48:25;10.80;92.60
76996;DHT22;65929;49.062;10.338;2023-05-10T04:49:26;10.80;92.70
76996;DHT22;65929;49.062;10.338;2023-05-10T04:50:27;10.80;92.80
76996;DHT22;65929;49.062;10.338;2023-05-10T04:51:28;10.80;92.80
76996;DHT22;65929;49.062;10.338;2023-05-10T04:52:29;10.80;92.60
76996;DHT22;65929;49.062;10.338;2023-05-10T04:53:31;10.80;92.50
76996;DHT22;65929;49.062;10.338;2023-05-10T04:54:32;10.80;92.30
76996;DHT22;65929;49.062;10.338;2023-05-10T04:55:33;10.90;92.50
76996;DHT22;65929;49.062;10.338;2023-05-10T04:56:34;10.90;92.10
76996;DHT22;65929;49.062;10.338;2023-05-10T04:57:35;10.90;92.20
76996;DHT22;65929;49.062;10.338;2023-05-10T04:58:36;10.90;92.10
76996;DHT22;65929;49.062;10.338;2023-05-10T04:59:37;10.90;92.00
76996;DHT22;65929;49.062;10.338;2023-05-10T05:00:38;10.90;92.00
76996;DHT22;65929;49.062;10.338;2023-05-10T05:01:39;10.90;92.20
76996;DHT22;65929;49.062;10.338;2023-05-10T05:02:42;10.90;92.20
76996;DHT22;65929;49.062;10.338;2023-05-10T05:03:44;10.90;92.30
76996;DHT22;65929;49.062;10.338;2023-05-10T05:04:45;10.90;92.30
76996;DHT22;65929;49.062;10.338;2023-05-10T05:05:46;10.80;91.50
76996;DHT22;65929;49.062;10.338;2023-05-10T05:06:47;10.90;91.70
76996;DHT22;65929;49.062;10.338;2023-05-10T05:07:47;10.90;91.60
76996;DHT22;65929;49.062;10.338;2023-05-10T05:08:50;10.90;91.50
76996;DHT22;65929;49.062;10.338;2023-05-10T05:09:51;10.90;91.40
76996;DHT22;65929;49.062;10.338;2023-05-10T05:10:52;10.90;91.40
76996;DHT22;65929;49.062;10.338;2023-05-10T05:11:53;10.90;91.80
76996;DHT22;65929;49.062;10.338;2023-05-10T05:12:54;10.90;91.80
76996;DHT22;65929;49.062;10.338;2023-05-10T05:13:55;10.90;92.20
76996;DHT22;65929;49.062;10.338;2023-05-10T05:14:56;10.90;92.40
76996;DHT22;65929;49.062;10.338;2023-05-10T05:15:59;10.90;92.40
76996;DHT22;65929;49.062;10.338;2023-05-10T05:17:00;10.90;92.40
76996;DHT22;65929;49.062;10.338;2023-05-10T05:18:02;11.00;92.50
76996;DHT22;65929;49.062;10.338;2023-05-10T05:19:03;11.00;92.60
76996;DHT22;65929;49.062;10.338;2023-05-10T05:20:05;11.00;92.30
76996;DHT22;65929;49.062;10.338;2023-05-10T05:21:13;11.00;92.30
76996;DHT22;65929;49.062;10.338;2023-05-10T05:22:15;11.00;92.10
76996;DHT22;65929;49.062;10.338;2023-05-10T05:23:16;11.00;92.30
76996;DHT22;65929;49.062;10.338;2023-05-10T05:24:19;11.00;92.10
76996;DHT22;65929;49.062;10.338;2023-05-10T05:25:20;11.00;92.10
76996;DHT22;65929;49.062;10.338;2023-05-10T05:26:20;11.10;92.20
76996;DHT22;65929;49.062;10.338;2023-05-10T05:27:22;11.10;92.10
76996;DHT22;65929;49.062;10.338;2023-05-10T05:28:24;11.10;92.00
76996;DHT22;65929;49.062;10.338;2023-05-10T05:29:25;11.10;91.90
76996;DHT22;65929;49.062;10.338;2023-05-10T05:30:26;11.10;91.80
76996;DHT22;65929;49.062;10.338;2023-05-10T05:31:27;11.10;91.90
76996;DHT22;65929;49.062;10.338;2023-05-10T05:32:28;11.10;91.80
76996;DHT22;65929;49.062;10.338;2023-05-10T05:33:29;11.10;92.00
76996;DHT22;65929;49.062;10.338;2023-05-10T05:34:30;11.10;92.10
76996;DHT22;65929;49.062;10.338;2023-05-10T05:35:31;11.10;92.10
76996;DHT22;65929;49.062;10.338;2023-05-10T05:36:35;11.10;92.50
76996;DHT22;65929;49.062;10.338;2023-05-10T05:37:36;11.00;92.20
76996;DHT22;65929;49.062;10.338;2023-05-10T05:38:37;11.10;92.40
76996;DHT22;65929;49.062;10.338;2023-05-10T05:39:40;11.10;92.50
76996;DHT22;65929;49.062;10.338;2023-05-10T05:40:41;11.10;92.70
76996;DHT22;65929;49.062;10.338;2023-05-10T05:41:42;11.10;92.80
76996;DHT22;65929;49.062;10.338;2023-05-10T05:42:43;11.10;93.00
76996;DHT22;65929;49.062;10.338;2023-05-10T05:43:44;11.10;93.10
76996;DHT22;65929;49.062;10.338;2023-05-10T05:44:45;11.10;93.00
76996;DHT22;65929;49.062;10.338;2023-05-10T05:45:46;11.10;93.00
76996;DHT22;65929;49.062;10.338;2023-05-10T05:46:47;11.10;93.10
76996;DHT22;65929;49.062;10.338;2023-05-10T05:47:48;11.10;93.10
76996;DHT22;65929;49.062;10.338;2023-05-10T05:48:49;11.10;93.20
76996;DHT22;65929;49.062;10.338;2023-05-10T05:49:50;11.10;93.40
76996;DHT22;65929;49.062;10.338;2023-05-10T05:50:54;11.10;93.00
76996;DHT22;65929;49.062;10.338;2023-05-10T05:51:58;11.10;93.20
76996;DHT22;65929;49.062;10.338;2023-05-10T05:52:59;11.10;92.90
76996;DHT22;65929;49.062;10.338;2023-05-10T05:54:00;11.10;92.50
76996;DHT22;65929;49.062;10.338;2023-05-10T05:55:03;11.10;92.10
76996;DHT22;65929;49.062;10.338;2023-05-10T05:56:04;11.10;92.10
76996;DHT22;65929;49.062;10.338;2023-05-10T05:57:05;11.20;92.20
76996;DHT22;65929;49.062;10.338;2023-05-10T05:58:06;11.20;92.30
76996;DHT22;65929;49.062;10.338;2023-05-10T05:59:07;11.20;92.30
76996;DHT22;65929;49.062;10.338;2023-05-10T06:00:09;11.30;92.50
76996;DHT22;65929;49.062;10.338;2023-05-10T06:01:10;11.30;92.30
76996;DHT22;65929;49.062;10.338;2023-05-10T06:02:11;11.30;92.50
76996;DHT22;65929;49.062;10.338;2023-05-10T06:03:12;11.30;92.00
76996;DHT22;65929;49.062;10.338;2023-05-10T06:04:13;11.30;92.10
76996;DHT22;65929;49.062;10.338;2023-05-10T06:05:14;11.30;92.30
76996;DHT22;65929;49.062;10.338;2023-05-10T06:06:15;11.30;92.20
76996;DHT22;65929;49.062;10.338;2023-05-10T06:07:16;11.30;92.50
76996;DHT22;65929;49.062;10.338;2023-05-10T06:08:17;11.30;92.50
76996;DHT22;65929;49.062;10.338;2023-05-10T06:09:18;11.30;92.50
76996;DHT22;65929;49.062;10.338;2023-05-10T06:10:21;11.30;92.40
76996;DHT22;65929;49.062;10.338;2023-05-10T06:11:23;11.30;92.30
76996;DHT22;65929;49.062;10.338;2023-05-10T06:12:24;11.30;92.20
76996;DHT22;65929;49.062;10.338;2023-05-10T06:13:25;11.30;92.40
76996;DHT22;65929;49.062;10.338;2023-05-10T06:14:32;11.30;92.70
76996;DHT22;65929;49.062;10.338;2023-05-10T06:15:33;11.30;92.50
76996;DHT22;65929;49.062;10.338;2023-05-10T06:16:34;11.30;92.70
76996;DHT22;65929;49.062;10.338;2023-05-10T06:17:35;11.30;92.80
76996;DHT22;65929;49.062;10.338;2023-05-10T06:18:36;11.30;92.90
76996;DHT22;65929;49.062;10.338;2023-05-10T06:19:37;11.30;93.10
76996;DHT22;65929;49.062;10.338;2023-05-10T06:20:38;11.30;93.20
76996;DHT22;65929;49.062;10.338;2023-05-10T06:21:39;11.30;93.20
76996;DHT22;65929;49.062;10.338;2023-05-10T06:22:40;11.30;93.20
76996;DHT22;65929;49.062;10.338;2023-05-10T06:23:41;11.30;93.10
76996;DHT22;65929;49.062;10.338;2023-05-10T06:24:42;11.30;93.00
76996;DHT22;65929;49.062;10.338;2023-05-10T06:25:45;11.30;93.20
76996;DHT22;65929;49.062;10.338;2023-05-10T06:26:46;11.30;93.20
76996;DHT22;65929;49.062;10.338;2023-05-10T06:27:47;11.40;93.20
76996;DHT22;65929;49.062;10.338;2023-05-10T06:28:48;11.40;93.20
76996;DHT22;65929;49.062;10.338;2023-05-10T06:29:49;11.30;93.10
76996;DHT22;65929;49.062;10.338;2023-05-10T06:30:50;11.40;93.10
76996;DHT22;65929;49.062;10.338;2023-05-10T06:31:51;11.40;93.00
76996;DHT22;65929;49.062;10.338;2023-05-10T06:32:51;11.40;92.90